Weather Data

Pearl Creek Farm: 8878 N Farm Road 75, Walnut Grove MO 65770

<== Previous Day (Tuesday 12 Jun 2018) | Next Day (Thursday 14 Jun 2018) ==>

Summary Precipitation Data For Wednesday 13 June 2018

ElementValueUnits
Precipitation0"
Notes(none)
SourcePearl Creek Farm

Summary Temperature Data For Wednesday 13 June 2018

ElementValueUnits
High Temperature91 oF
Low Temperature71 oF
Average Temperature81 oF
High Humidity84 %
Low Humidity47 %
Average Humidity67 %
SourceSpringfield-Branson National Airport (SGF)

Detail Temperature Data For Wednesday 13 June 2018

Date / TimeTemp (F)RH (%)Dew Pt (F)Report Date / TimeSource
2018-06-13 00:52:00 73 84 68.0 2019-02-02 11:24:24.260017 Springfield-Branson National Airport (SGF)
2018-06-13 01:52:00 73 81 67.0 2019-02-02 11:24:24.260017 Springfield-Branson National Airport (SGF)
2018-06-13 02:52:00 71 81 65.0 2019-02-02 11:24:24.260017 Springfield-Branson National Airport (SGF)
2018-06-13 03:52:00 72 82 66.0 2019-02-02 11:24:24.260017 Springfield-Branson National Airport (SGF)
2018-06-13 04:52:00 71 84 66.0 2019-02-02 11:24:24.260017 Springfield-Branson National Airport (SGF)
2018-06-13 05:52:00 72 84 67.0 2019-02-02 11:24:24.260017 Springfield-Branson National Airport (SGF)
2018-06-13 06:52:00 76 77 68.0 2019-02-02 11:24:24.260017 Springfield-Branson National Airport (SGF)
2018-06-13 07:52:00 78 71 68.0 2019-02-02 11:24:24.260017 Springfield-Branson National Airport (SGF)
2018-06-13 08:52:00 81 67 69.0 2019-02-02 11:24:24.260017 Springfield-Branson National Airport (SGF)
2018-06-13 09:52:00 85 61 70.0 2019-02-02 11:24:24.260017 Springfield-Branson National Airport (SGF)
2018-06-13 10:52:00 88 55 70.0 2019-02-02 11:24:24.260017 Springfield-Branson National Airport (SGF)
2018-06-13 11:52:00 90 50 69.0 2019-02-02 11:24:24.260017 Springfield-Branson National Airport (SGF)
2018-06-13 12:52:00 90 52 70.0 2019-02-02 11:24:24.260017 Springfield-Branson National Airport (SGF)
2018-06-13 13:52:00 90 52 70.0 2019-02-02 11:24:24.260017 Springfield-Branson National Airport (SGF)
2018-06-13 14:52:00 88 52 68.0 2019-02-02 11:24:24.260017 Springfield-Branson National Airport (SGF)
2018-06-13 15:52:00 89 50 68.0 2019-02-02 11:24:24.260017 Springfield-Branson National Airport (SGF)
2018-06-13 16:52:00 91 47 68.0 2019-02-02 11:24:24.260017 Springfield-Branson National Airport (SGF)
2018-06-13 17:52:00 89 50 68.0 2019-02-02 11:24:24.260017 Springfield-Branson National Airport (SGF)
2018-06-13 18:52:00 87 55 69.0 2019-02-02 11:24:24.260017 Springfield-Branson National Airport (SGF)
2018-06-13 19:52:00 83 65 70.0 2019-02-02 11:24:24.260017 Springfield-Branson National Airport (SGF)
2018-06-13 20:52:00 82 69 71.0 2019-02-02 11:24:24.260017 Springfield-Branson National Airport (SGF)
2018-06-13 21:52:00 78 76 70.0 2019-02-02 11:24:24.260017 Springfield-Branson National Airport (SGF)
2018-06-13 22:52:00 78 76 70.0 2019-02-02 11:24:24.260017 Springfield-Branson National Airport (SGF)
2018-06-13 23:52:00 78 79 71.0 2019-02-02 11:24:24.260017 Springfield-Branson National Airport (SGF)

A total of 24 rows are displayed.